sensor_id;sensor_type;location;lat;lon;timestamp;P1;durP1;ratioP1;P2;durP2;ratioP2
15287;SDS011;7745;48.708;9.026;2023-06-14T00:00:02;4.73;;;3.57;;
15287;SDS011;7745;48.708;9.026;2023-06-14T00:02:30;7.87;;;4.17;;
15287;SDS011;7745;48.708;9.026;2023-06-14T00:04:57;6.63;;;3.67;;
15287;SDS011;7745;48.708;9.026;2023-06-14T00:07:33;6.97;;;3.97;;
15287;SDS011;7745;48.708;9.026;2023-06-14T00:10:02;4.33;;;3.60;;
15287;SDS011;7745;48.708;9.026;2023-06-14T00:12:29;6.97;;;3.97;;
15287;SDS011;7745;48.708;9.026;2023-06-14T00:14:56;5.43;;;3.77;;
15287;SDS011;7745;48.708;9.026;2023-06-14T00:17:23;4.50;;;4.10;;
15287;SDS011;7745;48.708;9.026;2023-06-14T00:19:55;4.10;;;3.67;;
15287;SDS011;7745;48.708;9.026;2023-06-14T00:22:22;5.60;;;4.43;;
15287;SDS011;7745;48.708;9.026;2023-06-14T00:24:50;4.37;;;3.50;;
15287;SDS011;7745;48.708;9.026;2023-06-14T00:27:18;5.93;;;3.77;;
15287;SDS011;7745;48.708;9.026;2023-06-14T00:29:45;6.30;;;4.00;;
15287;SDS011;7745;48.708;9.026;2023-06-14T00:32:12;7.87;;;4.00;;
15287;SDS011;7745;48.708;9.026;2023-06-14T00:34:39;6.00;;;4.00;;
15287;SDS011;7745;48.708;9.026;2023-06-14T00:37:05;5.07;;;4.20;;
15287;SDS011;7745;48.708;9.026;2023-06-14T00:39:32;5.17;;;4.30;;
15287;SDS011;7745;48.708;9.026;2023-06-14T00:42:00;4.77;;;4.17;;
15287;SDS011;7745;48.708;9.026;2023-06-14T00:44:28;4.10;;;3.70;;
15287;SDS011;7745;48.708;9.026;2023-06-14T00:46:55;5.63;;;3.90;;
15287;SDS011;7745;48.708;9.026;2023-06-14T00:49:22;6.00;;;4.03;;
15287;SDS011;7745;48.708;9.026;2023-06-14T00:51:49;4.97;;;3.90;;
15287;SDS011;7745;48.708;9.026;2023-06-14T00:54:16;4.63;;;4.13;;
15287;SDS011;7745;48.708;9.026;2023-06-14T00:56:43;7.20;;;4.67;;
15287;SDS011;7745;48.708;9.026;2023-06-14T00:59:11;6.03;;;3.90;;
15287;SDS011;7745;48.708;9.026;2023-06-14T01:01:39;5.40;;;4.00;;
15287;SDS011;7745;48.708;9.026;2023-06-14T01:04:06;5.30;;;4.13;;
15287;SDS011;7745;48.708;9.026;2023-06-14T01:06:35;4.07;;;3.67;;
15287;SDS011;7745;48.708;9.026;2023-06-14T01:09:09;6.27;;;4.20;;
15287;SDS011;7745;48.708;9.026;2023-06-14T01:11:44;6.70;;;3.80;;
15287;SDS011;7745;48.708;9.026;2023-06-14T01:14:17;5.00;;;4.20;;
15287;SDS011;7745;48.708;9.026;2023-06-14T01:16:46;6.33;;;4.03;;
15287;SDS011;7745;48.708;9.026;2023-06-14T01:19:18;5.07;;;4.07;;
15287;SDS011;7745;48.708;9.026;2023-06-14T01:21:47;5.20;;;4.07;;
15287;SDS011;7745;48.708;9.026;2023-06-14T01:24:17;4.60;;;4.13;;
15287;SDS011;7745;48.708;9.026;2023-06-14T01:26:48;4.90;;;4.33;;
15287;SDS011;7745;48.708;9.026;2023-06-14T01:29:20;4.87;;;3.77;;
15287;SDS011;7745;48.708;9.026;2023-06-14T01:31:50;6.37;;;3.60;;
15287;SDS011;7745;48.708;9.026;2023-06-14T01:34:17;6.33;;;3.80;;
15287;SDS011;7745;48.708;9.026;2023-06-14T01:36:44;6.30;;;4.10;;
15287;SDS011;7745;48.708;9.026;2023-06-14T01:39:13;5.37;;;4.00;;
15287;SDS011;7745;48.708;9.026;2023-06-14T01:41:42;4.07;;;3.67;;
15287;SDS011;7745;48.708;9.026;2023-06-14T01:44:10;5.03;;;3.63;;
15287;SDS011;7745;48.708;9.026;2023-06-14T01:46:40;5.13;;;4.30;;
15287;SDS011;7745;48.708;9.026;2023-06-14T01:49:08;4.87;;;4.23;;
15287;SDS011;7745;48.708;9.026;2023-06-14T01:51:35;5.53;;;4.07;;
15287;SDS011;7745;48.708;9.026;2023-06-14T01:54:01;4.57;;;4.00;;
15287;SDS011;7745;48.708;9.026;2023-06-14T01:56:28;4.43;;;4.03;;
15287;SDS011;7745;48.708;9.026;2023-06-14T01:58:57;4.40;;;4.00;;
15287;SDS011;7745;48.708;9.026;2023-06-14T02:01:23;5.43;;;3.50;;
15287;SDS011;7745;48.708;9.026;2023-06-14T02:03:50;5.67;;;4.37;;
15287;SDS011;7745;48.708;9.026;2023-06-14T02:06:18;4.93;;;4.27;;
15287;SDS011;7745;48.708;9.026;2023-06-14T02:08:45;5.57;;;3.87;;
15287;SDS011;7745;48.708;9.026;2023-06-14T02:11:12;4.57;;;3.90;;
15287;SDS011;7745;48.708;9.026;2023-06-14T02:13:39;7.40;;;4.30;;
15287;SDS011;7745;48.708;9.026;2023-06-14T02:16:07;6.73;;;4.40;;
15287;SDS011;7745;48.708;9.026;2023-06-14T02:18:34;4.87;;;4.23;;
15287;SDS011;7745;48.708;9.026;2023-06-14T02:21:00;6.40;;;4.17;;
15287;SDS011;7745;48.708;9.026;2023-06-14T02:23:27;7.63;;;4.17;;
15287;SDS011;7745;48.708;9.026;2023-06-14T02:25:54;5.10;;;4.30;;
15287;SDS011;7745;48.708;9.026;2023-06-14T02:28:21;4.73;;;4.33;;
15287;SDS011;7745;48.708;9.026;2023-06-14T02:30:48;5.57;;;4.57;;
15287;SDS011;7745;48.708;9.026;2023-06-14T02:33:16;5.27;;;4.63;;
15287;SDS011;7745;48.708;9.026;2023-06-14T02:35:43;5.50;;;4.20;;
15287;SDS011;7745;48.708;9.026;2023-06-14T02:38:09;5.17;;;4.30;;
15287;SDS011;7745;48.708;9.026;2023-06-14T02:40:36;9.07;;;5.23;;
15287;SDS011;7745;48.708;9.026;2023-06-14T02:43:03;4.70;;;4.30;;
15287;SDS011;7745;48.708;9.026;2023-06-14T02:45:30;5.47;;;4.63;;
15287;SDS011;7745;48.708;9.026;2023-06-14T02:47:57;5.47;;;4.33;;
15287;SDS011;7745;48.708;9.026;2023-06-14T02:50:25;5.40;;;4.37;;
15287;SDS011;7745;48.708;9.026;2023-06-14T02:52:53;4.43;;;4.03;;
15287;SDS011;7745;48.708;9.026;2023-06-14T02:55:21;5.37;;;4.63;;
15287;SDS011;7745;48.708;9.026;2023-06-14T02:57:47;4.80;;;4.30;;
15287;SDS011;7745;48.708;9.026;2023-06-14T03:00:14;4.90;;;4.00;;
15287;SDS011;7745;48.708;9.026;2023-06-14T03:02:42;9.20;;;4.13;;
15287;SDS011;7745;48.708;9.026;2023-06-14T03:05:09;7.70;;;4.60;;
15287;SDS011;7745;48.708;9.026;2023-06-14T03:07:37;7.60;;;4.63;;
15287;SDS011;7745;48.708;9.026;2023-06-14T03:10:06;6.07;;;4.50;;
15287;SDS011;7745;48.708;9.026;2023-06-14T03:12:34;5.77;;;4.47;;
15287;SDS011;7745;48.708;9.026;2023-06-14T03:15:01;7.00;;;5.10;;
15287;SDS011;7745;48.708;9.026;2023-06-14T03:17:29;6.80;;;4.70;;
15287;SDS011;7745;48.708;9.026;2023-06-14T03:19:58;8.50;;;4.73;;
15287;SDS011;7745;48.708;9.026;2023-06-14T03:22:25;8.83;;;4.40;;
15287;SDS011;7745;48.708;9.026;2023-06-14T03:24:54;5.53;;;4.13;;
15287;SDS011;7745;48.708;9.026;2023-06-14T03:27:21;6.57;;;4.30;;
15287;SDS011;7745;48.708;9.026;2023-06-14T03:29:48;4.80;;;4.30;;
15287;SDS011;7745;48.708;9.026;2023-06-14T03:32:15;5.80;;;3.90;;
15287;SDS011;7745;48.708;9.026;2023-06-14T03:34:41;5.13;;;4.33;;
15287;SDS011;7745;48.708;9.026;2023-06-14T03:37:10;5.97;;;4.77;;
15287;SDS011;7745;48.708;9.026;2023-06-14T03:39:37;9.60;;;4.83;;
15287;SDS011;7745;48.708;9.026;2023-06-14T03:42:12;5.93;;;4.50;;
15287;SDS011;7745;48.708;9.026;2023-06-14T03:44:39;6.77;;;4.43;;
15287;SDS011;7745;48.708;9.026;2023-06-14T03:47:06;7.50;;;4.60;;
15287;SDS011;7745;48.708;9.026;2023-06-14T03:49:33;5.87;;;4.60;;
15287;SDS011;7745;48.708;9.026;2023-06-14T03:52:00;6.03;;;4.73;;
15287;SDS011;7745;48.708;9.026;2023-06-14T03:54:27;5.73;;;4.67;;
15287;SDS011;7745;48.708;9.026;2023-06-14T03:56:54;5.10;;;4.60;;
15287;SDS011;7745;48.708;9.026;2023-06-14T03:59:23;6.33;;;4.67;;
15287;SDS011;7745;48.708;9.026;2023-06-14T04:01:50;8.70;;;4.43;;
15287;SDS011;7745;48.708;9.026;2023-06-14T04:04:18;5.20;;;4.40;;
15287;SDS011;7745;48.708;9.026;2023-06-14T04:06:46;6.23;;;4.63;;
15287;SDS011;7745;48.708;9.026;2023-06-14T04:09:13;6.10;;;4.40;;
15287;SDS011;7745;48.708;9.026;2023-06-14T04:11:40;5.53;;;4.20;;
15287;SDS011;7745;48.708;9.026;2023-06-14T04:14:07;6.13;;;4.73;;
15287;SDS011;7745;48.708;9.026;2023-06-14T04:16:35;5.50;;;4.67;;
15287;SDS011;7745;48.708;9.026;2023-06-14T04:19:01;6.23;;;4.47;;
15287;SDS011;7745;48.708;9.026;2023-06-14T04:21:28;6.63;;;4.53;;
15287;SDS011;7745;48.708;9.026;2023-06-14T04:23:55;4.80;;;4.13;;
15287;SDS011;7745;48.708;9.026;2023-06-14T04:26:22;6.37;;;4.60;;
15287;SDS011;7745;48.708;9.026;2023-06-14T04:28:54;7.23;;;4.40;;
15287;SDS011;7745;48.708;9.026;2023-06-14T04:31:21;7.07;;;4.40;;
15287;SDS011;7745;48.708;9.026;2023-06-14T04:33:51;10.17;;;5.00;;
15287;SDS011;7745;48.708;9.026;2023-06-14T04:36:20;8.27;;;5.03;;
15287;SDS011;7745;48.708;9.026;2023-06-14T04:38:47;7.97;;;4.50;;
15287;SDS011;7745;48.708;9.026;2023-06-14T04:41:14;6.80;;;4.40;;
15287;SDS011;7745;48.708;9.026;2023-06-14T04:43:41;6.00;;;4.63;;
15287;SDS011;7745;48.708;9.026;2023-06-14T04:46:08;5.33;;;4.60;;
15287;SDS011;7745;48.708;9.026;2023-06-14T04:48:36;9.57;;;5.70;;
15287;SDS011;7745;48.708;9.026;2023-06-14T04:51:05;8.40;;;5.00;;
15287;SDS011;7745;48.708;9.026;2023-06-14T04:53:32;5.90;;;5.17;;
15287;SDS011;7745;48.708;9.026;2023-06-14T04:55:59;6.67;;;5.00;;
15287;SDS011;7745;48.708;9.026;2023-06-14T04:58:27;5.93;;;5.07;;
15287;SDS011;7745;48.708;9.026;2023-06-14T05:00:54;7.50;;;5.43;;
15287;SDS011;7745;48.708;9.026;2023-06-14T05:03:24;6.33;;;4.90;;
15287;SDS011;7745;48.708;9.026;2023-06-14T05:05:51;7.67;;;5.20;;
15287;SDS011;7745;48.708;9.026;2023-06-14T05:08:20;7.80;;;5.33;;
15287;SDS011;7745;48.708;9.026;2023-06-14T05:10:48;10.70;;;6.00;;
15287;SDS011;7745;48.708;9.026;2023-06-14T05:13:15;7.77;;;5.50;;
15287;SDS011;7745;48.708;9.026;2023-06-14T05:15:42;7.90;;;5.63;;
15287;SDS011;7745;48.708;9.026;2023-06-14T05:18:09;7.93;;;6.23;;
15287;SDS011;7745;48.708;9.026;2023-06-14T05:20:36;10.13;;;5.70;;
15287;SDS011;7745;48.708;9.026;2023-06-14T05:23:03;11.70;;;5.67;;
15287;SDS011;7745;48.708;9.026;2023-06-14T05:25:31;13.03;;;6.37;;
15287;SDS011;7745;48.708;9.026;2023-06-14T05:27:58;8.47;;;5.20;;
15287;SDS011;7745;48.708;9.026;2023-06-14T05:30:25;8.47;;;5.90;;
15287;SDS011;7745;48.708;9.026;2023-06-14T05:32:54;9.20;;;5.37;;
15287;SDS011;7745;48.708;9.026;2023-06-14T05:35:21;12.77;;;5.93;;
15287;SDS011;7745;48.708;9.026;2023-06-14T05:37:48;9.57;;;5.50;;
15287;SDS011;7745;48.708;9.026;2023-06-14T05:40:15;10.33;;;5.77;;
15287;SDS011;7745;48.708;9.026;2023-06-14T05:42:44;11.90;;;5.50;;
15287;SDS011;7745;48.708;9.026;2023-06-14T05:45:11;8.90;;;6.30;;
15287;SDS011;7745;48.708;9.026;2023-06-14T05:47:39;14.77;;;5.97;;
15287;SDS011;7745;48.708;9.026;2023-06-14T05:50:06;13.70;;;5.70;;
15287;SDS011;7745;48.708;9.026;2023-06-14T05:52:33;12.17;;;5.70;;
15287;SDS011;7745;48.708;9.026;2023-06-14T05:55:00;9.73;;;5.47;;
15287;SDS011;7745;48.708;9.026;2023-06-14T05:57:27;10.93;;;4.97;;
15287;SDS011;7745;48.708;9.026;2023-06-14T05:59:55;7.47;;;4.83;;
15287;SDS011;7745;48.708;9.026;2023-06-14T06:02:22;6.63;;;4.60;;
15287;SDS011;7745;48.708;9.026;2023-06-14T06:04:49;6.70;;;4.07;;
15287;SDS011;7745;48.708;9.026;2023-06-14T06:07:16;7.27;;;4.17;;
15287;SDS011;7745;48.708;9.026;2023-06-14T06:09:42;4.30;;;3.73;;
15287;SDS011;7745;48.708;9.026;2023-06-14T06:12:09;6.60;;;3.60;;
15287;SDS011;7745;48.708;9.026;2023-06-14T06:14:36;5.27;;;4.00;;
15287;SDS011;7745;48.708;9.026;2023-06-14T06:17:05;4.43;;;3.67;;
15287;SDS011;7745;48.708;9.026;2023-06-14T06:19:32;5.37;;;4.20;;
15287;SDS011;7745;48.708;9.026;2023-06-14T06:21:59;5.80;;;3.80;;
15287;SDS011;7745;48.708;9.026;2023-06-14T06:24:26;7.27;;;3.77;;
15287;SDS011;7745;48.708;9.026;2023-06-14T06:26:52;5.90;;;4.07;;
15287;SDS011;7745;48.708;9.026;2023-06-14T06:29:19;4.23;;;3.83;;
15287;SDS011;7745;48.708;9.026;2023-06-14T06:31:46;3.80;;;3.37;;
15287;SDS011;7745;48.708;9.026;2023-06-14T06:34:14;4.30;;;3.90;;
15287;SDS011;7745;48.708;9.026;2023-06-14T06:36:41;6.30;;;3.93;;
15287;SDS011;7745;48.708;9.026;2023-06-14T06:39:08;6.57;;;3.97;;
15287;SDS011;7745;48.708;9.026;2023-06-14T06:41:35;3.83;;;3.43;;
15287;SDS011;7745;48.708;9.026;2023-06-14T06:44:03;5.33;;;3.53;;
15287;SDS011;7745;48.708;9.026;2023-06-14T06:46:30;7.77;;;4.03;;
15287;SDS011;7745;48.708;9.026;2023-06-14T06:48:57;4.10;;;3.47;;
15287;SDS011;7745;48.708;9.026;2023-06-14T06:51:25;5.83;;;3.73;;
15287;SDS011;7745;48.708;9.026;2023-06-14T06:53:52;7.33;;;3.90;;
15287;SDS011;7745;48.708;9.026;2023-06-14T06:56:19;6.83;;;3.73;;
15287;SDS011;7745;48.708;9.026;2023-06-14T06:58:48;4.23;;;3.63;;
15287;SDS011;7745;48.708;9.026;2023-06-14T07:01:15;5.30;;;3.77;;
15287;SDS011;7745;48.708;9.026;2023-06-14T07:03:42;4.63;;;3.40;;
15287;SDS011;7745;48.708;9.026;2023-06-14T07:06:08;4.00;;;3.60;;
15287;SDS011;7745;48.708;9.026;2023-06-14T07:08:37;5.63;;;3.93;;
15287;SDS011;7745;48.708;9.026;2023-06-14T07:11:04;4.87;;;4.00;;
15287;SDS011;7745;48.708;9.026;2023-06-14T07:13:32;6.73;;;3.90;;
15287;SDS011;7745;48.708;9.026;2023-06-14T07:15:59;4.80;;;3.60;;
15287;SDS011;7745;48.708;9.026;2023-06-14T07:18:26;7.30;;;3.60;;
15287;SDS011;7745;48.708;9.026;2023-06-14T07:20:53;7.33;;;3.80;;
15287;SDS011;7745;48.708;9.026;2023-06-14T07:23:21;5.80;;;4.30;;
15287;SDS011;7745;48.708;9.026;2023-06-14T07:25:49;4.43;;;3.63;;
15287;SDS011;7745;48.708;9.026;2023-06-14T07:28:16;5.10;;;3.40;;
15287;SDS011;7745;48.708;9.026;2023-06-14T07:30:43;5.83;;;3.70;;
15287;SDS011;7745;48.708;9.026;2023-06-14T07:33:10;5.13;;;3.90;;
15287;SDS011;7745;48.708;9.026;2023-06-14T07:35:37;6.43;;;3.67;;
15287;SDS011;7745;48.708;9.026;2023-06-14T07:38:04;7.80;;;4.40;;
15287;SDS011;7745;48.708;9.026;2023-06-14T07:40:31;6.73;;;3.83;;
15287;SDS011;7745;48.708;9.026;2023-06-14T07:42:59;6.87;;;3.80;;
15287;SDS011;7745;48.708;9.026;2023-06-14T07:45:26;8.17;;;3.93;;
15287;SDS011;7745;48.708;9.026;2023-06-14T07:47:53;3.93;;;3.37;;
15287;SDS011;7745;48.708;9.026;2023-06-14T07:50:20;4.53;;;3.70;;
15287;SDS011;7745;48.708;9.026;2023-06-14T07:52:47;5.47;;;3.63;;
15287;SDS011;7745;48.708;9.026;2023-06-14T07:55:14;7.30;;;3.73;;
15287;SDS011;7745;48.708;9.026;2023-06-14T07:57:41;6.93;;;4.17;;
15287;SDS011;7745;48.708;9.026;2023-06-14T08:00:11;7.93;;;4.20;;
15287;SDS011;7745;48.708;9.026;2023-06-14T08:02:40;8.17;;;4.20;;
15287;SDS011;7745;48.708;9.026;2023-06-14T08:05:08;5.47;;;4.43;;
15287;SDS011;7745;48.708;9.026;2023-06-14T08:07:36;7.03;;;4.33;;
15287;SDS011;7745;48.708;9.026;2023-06-14T08:10:03;8.03;;;4.50;;
15287;SDS011;7745;48.708;9.026;2023-06-14T08:12:30;7.80;;;4.13;;
15287;SDS011;7745;48.708;9.026;2023-06-14T08:14:57;6.90;;;4.10;;
15287;SDS011;7745;48.708;9.026;2023-06-14T08:17:25;5.97;;;4.30;;
15287;SDS011;7745;48.708;9.026;2023-06-14T08:19:52;4.80;;;4.27;;
15287;SDS011;7745;48.708;9.026;2023-06-14T08:22:22;7.13;;;4.53;;
15287;SDS011;7745;48.708;9.026;2023-06-14T08:24:49;6.53;;;4.43;;
15287;SDS011;7745;48.708;9.026;2023-06-14T08:27:16;7.77;;;4.47;;
15287;SDS011;7745;48.708;9.026;2023-06-14T08:29:43;5.57;;;4.23;;
15287;SDS011;7745;48.708;9.026;2023-06-14T08:32:10;7.27;;;3.97;;
15287;SDS011;7745;48.708;9.026;2023-06-14T08:34:38;4.77;;;4.20;;
15287;SDS011;7745;48.708;9.026;2023-06-14T08:37:04;6.90;;;4.43;;
15287;SDS011;7745;48.708;9.026;2023-06-14T08:39:31;9.47;;;4.03;;
15287;SDS011;7745;48.708;9.026;2023-06-14T08:41:58;6.80;;;4.23;;
15287;SDS011;7745;48.708;9.026;2023-06-14T08:44:28;4.83;;;3.80;;
15287;SDS011;7745;48.708;9.026;2023-06-14T08:46:55;7.20;;;3.93;;
15287;SDS011;7745;48.708;9.026;2023-06-14T08:49:23;6.93;;;3.97;;
15287;SDS011;7745;48.708;9.026;2023-06-14T08:51:56;5.97;;;4.07;;
15287;SDS011;7745;48.708;9.026;2023-06-14T08:54:25;8.30;;;4.50;;
15287;SDS011;7745;48.708;9.026;2023-06-14T08:56:55;8.57;;;4.37;;
15287;SDS011;7745;48.708;9.026;2023-06-14T08:59:23;8.97;;;4.20;;
15287;SDS011;7745;48.708;9.026;2023-06-14T09:01:51;6.63;;;3.80;;
15287;SDS011;7745;48.708;9.026;2023-06-14T09:04:19;5.63;;;4.57;;
15287;SDS011;7745;48.708;9.026;2023-06-14T09:06:46;9.03;;;4.17;;
15287;SDS011;7745;48.708;9.026;2023-06-14T09:09:19;7.03;;;4.30;;
15287;SDS011;7745;48.708;9.026;2023-06-14T09:11:46;5.57;;;4.37;;
15287;SDS011;7745;48.708;9.026;2023-06-14T09:14:13;7.27;;;4.60;;
15287;SDS011;7745;48.708;9.026;2023-06-14T09:16:39;6.37;;;4.70;;
15287;SDS011;7745;48.708;9.026;2023-06-14T09:19:06;7.60;;;4.50;;
15287;SDS011;7745;48.708;9.026;2023-06-14T09:21:33;8.73;;;4.87;;
15287;SDS011;7745;48.708;9.026;2023-06-14T09:24:01;7.17;;;4.40;;
15287;SDS011;7745;48.708;9.026;2023-06-14T09:26:30;7.03;;;4.57;;
15287;SDS011;7745;48.708;9.026;2023-06-14T09:28:57;5.97;;;4.53;;
15287;SDS011;7745;48.708;9.026;2023-06-14T09:31:25;6.73;;;4.40;;
15287;SDS011;7745;48.708;9.026;2023-06-14T09:33:56;7.87;;;4.50;;
15287;SDS011;7745;48.708;9.026;2023-06-14T09:36:23;7.90;;;4.30;;
15287;SDS011;7745;48.708;9.026;2023-06-14T09:38:51;5.50;;;3.93;;
15287;SDS011;7745;48.708;9.026;2023-06-14T09:41:19;9.17;;;4.37;;
15287;SDS011;7745;48.708;9.026;2023-06-14T09:43:48;6.60;;;4.50;;
15287;SDS011;7745;48.708;9.026;2023-06-14T09:46:15;6.70;;;3.93;;
15287;SDS011;7745;48.708;9.026;2023-06-14T09:48:42;8.23;;;4.10;;
15287;SDS011;7745;48.708;9.026;2023-06-14T09:51:10;7.13;;;4.00;;
15287;SDS011;7745;48.708;9.026;2023-06-14T09:53:40;5.40;;;3.77;;
15287;SDS011;7745;48.708;9.026;2023-06-14T09:56:08;8.07;;;4.50;;
15287;SDS011;7745;48.708;9.026;2023-06-14T09:58:37;9.48;;;3.88;;
15287;SDS011;7745;48.708;9.026;2023-06-14T10:01:08;8.23;;;4.13;;
15287;SDS011;7745;48.708;9.026;2023-06-14T10:03:38;6.53;;;3.93;;
15287;SDS011;7745;48.708;9.026;2023-06-14T10:06:06;6.20;;;4.27;;
15287;SDS011;7745;48.708;9.026;2023-06-14T10:08:36;7.10;;;4.00;;
15287;SDS011;7745;48.708;9.026;2023-06-14T10:11:03;6.00;;;4.07;;
15287;SDS011;7745;48.708;9.026;2023-06-14T10:13:31;7.75;;;4.38;;
15287;SDS011;7745;48.708;9.026;2023-06-14T10:16:00;9.23;;;4.53;;
15287;SDS011;7745;48.708;9.026;2023-06-14T10:18:36;6.93;;;4.72;;
15287;SDS011;7745;48.708;9.026;2023-06-14T10:21:11;6.55;;;4.35;;
15287;SDS011;7745;48.708;9.026;2023-06-14T10:23:43;6.13;;;4.47;;
15287;SDS011;7745;48.708;9.026;2023-06-14T10:26:17;7.25;;;3.88;;
15287;SDS011;7745;48.708;9.026;2023-06-14T10:28:53;6.30;;;4.18;;
15287;SDS011;7745;48.708;9.026;2023-06-14T10:31:22;5.07;;;3.83;;
15287;SDS011;7745;48.708;9.026;2023-06-14T10:34:06;6.07;;;4.43;;
15287;SDS011;7745;48.708;9.026;2023-06-14T10:36:33;6.83;;;4.30;;
15287;SDS011;7745;48.708;9.026;2023-06-14T10:39:01;5.23;;;3.87;;
15287;SDS011;7745;48.708;9.026;2023-06-14T10:41:31;4.95;;;3.80;;
15287;SDS011;7745;48.708;9.026;2023-06-14T10:47:06;4.40;;;4.00;;
15287;SDS011;7745;48.708;9.026;2023-06-14T10:49:40;6.75;;;4.20;;
15287;SDS011;7745;48.708;9.026;2023-06-14T10:52:09;4.75;;;4.30;;
15287;SDS011;7745;48.708;9.026;2023-06-14T10:55:00;8.00;;;4.60;;
15287;SDS011;7745;48.708;9.026;2023-06-14T10:57:40;5.60;;;4.07;;
15287;SDS011;7745;48.708;9.026;2023-06-14T11:00:08;6.70;;;4.07;;
15287;SDS011;7745;48.708;9.026;2023-06-14T11:02:59;5.60;;;4.43;;
15287;SDS011;7745;48.708;9.026;2023-06-14T11:05:55;5.28;;;3.95;;
15287;SDS011;7745;48.708;9.026;2023-06-14T11:08:27;4.40;;;4.00;;
15287;SDS011;7745;48.708;9.026;2023-06-14T11:11:24;11.00;;;4.65;;
15287;SDS011;7745;48.708;9.026;2023-06-14T11:13:56;6.13;;;4.32;;
15287;SDS011;7745;48.708;9.026;2023-06-14T11:16:25;6.43;;;3.67;;
15287;SDS011;7745;48.708;9.026;2023-06-14T11:18:53;7.50;;;3.88;;
15287;SDS011;7745;48.708;9.026;2023-06-14T11:21:21;6.47;;;4.07;;
15287;SDS011;7745;48.708;9.026;2023-06-14T11:23:50;4.88;;;4.03;;
15287;SDS011;7745;48.708;9.026;2023-06-14T11:26:24;4.80;;;3.75;;
15287;SDS011;7745;48.708;9.026;2023-06-14T11:28:54;6.85;;;4.13;;
15287;SDS011;7745;48.708;9.026;2023-06-14T11:31:23;7.50;;;4.15;;
15287;SDS011;7745;48.708;9.026;2023-06-14T11:33:50;6.85;;;4.20;;
15287;SDS011;7745;48.708;9.026;2023-06-14T11:36:20;10.65;;;4.40;;
15287;SDS011;7745;48.708;9.026;2023-06-14T11:38:47;5.22;;;4.40;;
15287;SDS011;7745;48.708;9.026;2023-06-14T11:41:14;9.10;;;3.88;;
15287;SDS011;7745;48.708;9.026;2023-06-14T11:43:40;5.13;;;4.00;;
15287;SDS011;7745;48.708;9.026;2023-06-14T11:46:12;7.22;;;3.88;;
15287;SDS011;7745;48.708;9.026;2023-06-14T11:48:40;7.65;;;4.07;;
15287;SDS011;7745;48.708;9.026;2023-06-14T11:51:08;5.82;;;4.25;;
15287;SDS011;7745;48.708;9.026;2023-06-14T11:53:37;7.25;;;4.15;;
15287;SDS011;7745;48.708;9.026;2023-06-14T11:56:04;4.32;;;3.90;;
15287;SDS011;7745;48.708;9.026;2023-06-14T11:58:31;8.00;;;4.05;;
15287;SDS011;7745;48.708;9.026;2023-06-14T12:00:58;6.75;;;3.58;;
15287;SDS011;7745;48.708;9.026;2023-06-14T12:03:25;6.68;;;3.92;;
15287;SDS011;7745;48.708;9.026;2023-06-14T12:06:03;6.97;;;4.43;;
15287;SDS011;7745;48.708;9.026;2023-06-14T12:08:32;7.57;;;4.13;;
15287;SDS011;7745;48.708;9.026;2023-06-14T12:11:06;7.38;;;4.30;;
15287;SDS011;7745;48.708;9.026;2023-06-14T12:13:37;6.53;;;4.03;;
15287;SDS011;7745;48.708;9.026;2023-06-14T12:16:06;4.72;;;4.05;;
15287;SDS011;7745;48.708;9.026;2023-06-14T12:18:34;4.95;;;3.80;;
15287;SDS011;7745;48.708;9.026;2023-06-14T12:21:02;7.25;;;3.83;;
15287;SDS011;7745;48.708;9.026;2023-06-14T12:23:44;7.88;;;3.78;;
15287;SDS011;7745;48.708;9.026;2023-06-14T12:26:13;4.57;;;3.78;;
15287;SDS011;7745;48.708;9.026;2023-06-14T12:28:41;5.25;;;3.70;;
15287;SDS011;7745;48.708;9.026;2023-06-14T12:31:09;6.32;;;3.97;;
15287;SDS011;7745;48.708;9.026;2023-06-14T12:33:37;6.28;;;3.80;;
15287;SDS011;7745;48.708;9.026;2023-06-14T12:36:06;7.13;;;3.95;;
15287;SDS011;7745;48.708;9.026;2023-06-14T12:38:33;4.22;;;3.83;;
15287;SDS011;7745;48.708;9.026;2023-06-14T12:41:00;6.00;;;3.85;;
15287;SDS011;7745;48.708;9.026;2023-06-14T12:43:29;5.93;;;3.88;;
15287;SDS011;7745;48.708;9.026;2023-06-14T12:45:56;4.80;;;4.30;;
15287;SDS011;7745;48.708;9.026;2023-06-14T12:48:22;7.15;;;3.58;;
15287;SDS011;7745;48.708;9.026;2023-06-14T12:50:49;5.40;;;3.80;;
15287;SDS011;7745;48.708;9.026;2023-06-14T12:53:16;4.30;;;3.45;;
15287;SDS011;7745;48.708;9.026;2023-06-14T12:55:43;4.20;;;3.72;;
15287;SDS011;7745;48.708;9.026;2023-06-14T12:58:10;5.50;;;3.65;;
15287;SDS011;7745;48.708;9.026;2023-06-14T13:00:38;5.65;;;3.80;;
15287;SDS011;7745;48.708;9.026;2023-06-14T13:03:05;4.45;;;3.70;;
15287;SDS011;7745;48.708;9.026;2023-06-14T13:05:32;6.45;;;3.55;;
15287;SDS011;7745;48.708;9.026;2023-06-14T13:07:59;7.93;;;3.70;;
15287;SDS011;7745;48.708;9.026;2023-06-14T13:10:26;6.30;;;3.72;;
15287;SDS011;7745;48.708;9.026;2023-06-14T13:12:53;6.72;;;3.60;;
15287;SDS011;7745;48.708;9.026;2023-06-14T13:15:19;5.70;;;3.50;;
15287;SDS011;7745;48.708;9.026;2023-06-14T13:17:48;6.13;;;3.78;;
15287;SDS011;7745;48.708;9.026;2023-06-14T13:20:15;3.97;;;3.58;;
15287;SDS011;7745;48.708;9.026;2023-06-14T13:22:42;5.68;;;3.72;;
15287;SDS011;7745;48.708;9.026;2023-06-14T13:25:09;3.75;;;3.28;;
15287;SDS011;7745;48.708;9.026;2023-06-14T13:27:36;7.40;;;3.85;;
15287;SDS011;7745;48.708;9.026;2023-06-14T13:30:03;6.03;;;4.10;;
15287;SDS011;7745;48.708;9.026;2023-06-14T13:32:31;5.53;;;3.70;;
15287;SDS011;7745;48.708;9.026;2023-06-14T13:34:59;5.25;;;3.70;;
15287;SDS011;7745;48.708;9.026;2023-06-14T13:37:26;4.35;;;3.78;;
15287;SDS011;7745;48.708;9.026;2023-06-14T13:39:53;6.55;;;3.80;;
15287;SDS011;7745;48.708;9.026;2023-06-14T13:42:20;4.95;;;4.30;;
15287;SDS011;7745;48.708;9.026;2023-06-14T13:44:47;5.60;;;3.60;;
15287;SDS011;7745;48.708;9.026;2023-06-14T13:47:14;7.18;;;3.60;;
15287;SDS011;7745;48.708;9.026;2023-06-14T13:49:41;6.30;;;3.58;;
15287;SDS011;7745;48.708;9.026;2023-06-14T13:52:09;7.15;;;3.95;;
15287;SDS011;7745;48.708;9.026;2023-06-14T13:54:36;5.53;;;3.47;;
15287;SDS011;7745;48.708;9.026;2023-06-14T13:57:03;10.30;;;3.47;;
15287;SDS011;7745;48.708;9.026;2023-06-14T13:59:30;6.22;;;3.58;;
15287;SDS011;7745;48.708;9.026;2023-06-14T14:01:57;7.40;;;3.53;;
15287;SDS011;7745;48.708;9.026;2023-06-14T14:04:24;4.03;;;3.63;;
15287;SDS011;7745;48.708;9.026;2023-06-14T14:06:51;7.53;;;3.20;;
15287;SDS011;7745;48.708;9.026;2023-06-14T14:09:19;6.65;;;4.18;;
15287;SDS011;7745;48.708;9.026;2023-06-14T14:11:46;4.43;;;3.35;;
15287;SDS011;7745;48.708;9.026;2023-06-14T14:14:13;5.28;;;3.50;;
15287;SDS011;7745;48.708;9.026;2023-06-14T14:16:40;5.43;;;3.70;;
15287;SDS011;7745;48.708;9.026;2023-06-14T14:19:07;4.35;;;3.38;;
15287;SDS011;7745;48.708;9.026;2023-06-14T14:21:34;4.45;;;3.60;;
15287;SDS011;7745;48.708;9.026;2023-06-14T14:24:01;6.18;;;3.22;;
15287;SDS011;7745;48.708;9.026;2023-06-14T14:26:29;4.75;;;3.50;;
15287;SDS011;7745;48.708;9.026;2023-06-14T14:28:56;6.93;;;3.75;;
15287;SDS011;7745;48.708;9.026;2023-06-14T14:31:23;5.40;;;3.42;;
15287;SDS011;7745;48.708;9.026;2023-06-14T14:33:50;5.68;;;3.67;;
15287;SDS011;7745;48.708;9.026;2023-06-14T14:36:17;4.03;;;3.63;;
15287;SDS011;7745;48.708;9.026;2023-06-14T14:38:44;4.82;;;3.60;;
15287;SDS011;7745;48.708;9.026;2023-06-14T14:41:12;7.93;;;3.33;;
15287;SDS011;7745;48.708;9.026;2023-06-14T14:43:40;7.28;;;3.65;;
15287;SDS011;7745;48.708;9.026;2023-06-14T14:46:07;5.30;;;3.30;;
15287;SDS011;7745;48.708;9.026;2023-06-14T14:48:34;4.30;;;3.22;;
15287;SDS011;7745;48.708;9.026;2023-06-14T14:51:01;5.25;;;3.85;;
15287;SDS011;7745;48.708;9.026;2023-06-14T14:53:28;5.78;;;3.45;;
15287;SDS011;7745;48.708;9.026;2023-06-14T14:55:55;6.88;;;3.55;;
15287;SDS011;7745;48.708;9.026;2023-06-14T14:58:21;5.55;;;3.33;;
15287;SDS011;7745;48.708;9.026;2023-06-14T15:00:50;4.97;;;3.28;;
15287;SDS011;7745;48.708;9.026;2023-06-14T15:03:16;5.53;;;3.30;;
15287;SDS011;7745;48.708;9.026;2023-06-14T15:05:43;6.45;;;3.72;;
15287;SDS011;7745;48.708;9.026;2023-06-14T15:08:10;4.57;;;3.15;;